createdAt,value
2022-12-24T00:01:07.592Z,1.00
2022-12-24T00:03:35.503Z,1.17
2022-12-24T00:06:17.833Z,1.90
2022-12-24T00:08:44.639Z,2.13
2022-12-24T00:11:11.516Z,1.20
2022-12-24T00:13:38.372Z,1.60
2022-12-24T00:16:06.291Z,1.03
2022-12-24T00:18:37.432Z,1.33
2022-12-24T00:21:07.213Z,0.87
2022-12-24T00:23:34.048Z,1.48
2022-12-24T00:26:01.098Z,2.10
2022-12-24T00:28:27.988Z,1.13
2022-12-24T00:30:54.907Z,0.83
2022-12-24T00:33:24.647Z,1.00
2022-12-24T00:35:53.390Z,1.37
2022-12-24T00:38:20.522Z,1.00
2022-12-24T00:40:47.282Z,0.70
2022-12-24T00:43:32.923Z,0.70
2022-12-24T00:46:00.082Z,1.00
2022-12-24T00:48:26.887Z,1.50
2022-12-24T00:50:53.735Z,0.73
2022-12-24T00:53:20.568Z,1.87
2022-12-24T00:55:47.406Z,1.00
2022-12-24T00:58:14.148Z,0.90
2022-12-24T01:00:40.919Z,0.63
2022-12-24T01:03:07.747Z,1.53
2022-12-24T01:05:53.198Z,0.93
2022-12-24T01:08:20.251Z,0.82
2022-12-24T01:10:47.048Z,0.87
2022-12-24T01:13:13.790Z,1.67
2022-12-24T01:15:40.677Z,1.13
2022-12-24T01:18:07.436Z,1.23
2022-12-24T01:20:34.214Z,1.17
2022-12-24T01:23:00.971Z,0.90
2022-12-24T01:25:27.818Z,0.87
2022-12-24T01:27:54.605Z,0.83
2022-12-24T01:30:21.460Z,1.20
2022-12-24T01:32:48.214Z,1.43
2022-12-24T01:35:15.130Z,1.30
2022-12-24T01:37:43.037Z,0.80
2022-12-24T01:40:36.149Z,1.30
2022-12-24T01:43:21.942Z,1.53
2022-12-24T01:45:53.141Z,0.80
2022-12-24T01:48:44.144Z,0.70
2022-12-24T01:51:40.312Z,0.80
2022-12-24T01:54:27.281Z,1.00
2022-12-24T01:57:00.956Z,1.10
2022-12-24T01:59:29.423Z,0.90
2022-12-24T02:01:56.512Z,0.80
2022-12-24T02:04:44.412Z,0.53
2022-12-24T02:07:11.224Z,1.17
2022-12-24T02:09:58.225Z,0.67
2022-12-24T02:12:27.035Z,0.60
2022-12-24T02:14:54.833Z,1.33
2022-12-24T02:17:35.371Z,1.53
2022-12-24T02:20:39.875Z,1.63
2022-12-24T02:23:28.008Z,1.03
2022-12-24T02:26:19.340Z,1.20
2022-12-24T02:29:07.771Z,0.77
2022-12-24T02:31:40.616Z,1.40
2022-12-24T02:34:15.165Z,1.17
2022-12-24T02:36:56.603Z,1.37
2022-12-24T02:39:33.859Z,1.17
2022-12-24T02:42:06.886Z,0.90
2022-12-24T02:44:57.028Z,1.30
2022-12-24T02:47:28.114Z,0.80
2022-12-24T02:49:54.920Z,0.80
2022-12-24T02:52:39.742Z,0.33
2022-12-24T02:55:21.968Z,1.00
2022-12-24T02:58:06.904Z,1.03
2022-12-24T03:01:17.282Z,0.80
2022-12-24T03:04:42.549Z,1.00
2022-12-24T03:07:12.227Z,1.67
2022-12-24T03:12:54.795Z,1.07
2022-12-24T03:15:25.908Z,0.93
2022-12-24T03:17:57.381Z,1.03
2022-12-24T03:20:34.778Z,1.00
2022-12-24T03:23:01.717Z,0.97
2022-12-24T03:25:29.015Z,1.30
2022-12-24T03:27:57.659Z,0.60
2022-12-24T03:30:26.115Z,0.90
2022-12-24T03:32:53.088Z,0.53
2022-12-24T03:35:20.088Z,0.57
2022-12-24T03:37:46.915Z,1.77
2022-12-24T03:40:13.989Z,0.90
2022-12-24T03:42:40.934Z,0.67
2022-12-24T03:45:08.661Z,1.13
2022-12-24T03:47:35.573Z,1.13
2022-12-24T03:50:02.322Z,2.30
2022-12-24T03:52:29.181Z,0.67
2022-12-24T03:54:55.975Z,0.80
2022-12-24T03:57:41.221Z,1.63
2022-12-24T04:00:08.791Z,1.10
2022-12-24T04:02:41.703Z,1.20
2022-12-24T04:05:09.252Z,0.77
2022-12-24T04:07:36.476Z,1.33
2022-12-24T04:10:03.437Z,0.73
2022-12-24T04:12:30.116Z,0.53
2022-12-24T04:14:56.889Z,1.13
2022-12-24T04:17:23.770Z,0.83
2022-12-24T04:19:50.595Z,1.10
2022-12-24T04:22:18.020Z,0.90
2022-12-24T04:24:44.891Z,1.07
2022-12-24T04:27:14.545Z,1.13
2022-12-24T04:29:41.360Z,0.93
2022-12-24T04:32:10.574Z,1.20
2022-12-24T04:34:37.655Z,1.17
2022-12-24T04:37:04.713Z,1.23
2022-12-24T04:39:32.064Z,1.17
2022-12-24T04:41:58.845Z,0.93
2022-12-24T04:44:25.641Z,0.87
2022-12-24T04:46:52.393Z,1.10
2022-12-24T04:49:19.180Z,1.17
2022-12-24T04:51:45.874Z,0.93
2022-12-24T04:54:13.299Z,1.50
2022-12-24T04:56:39.996Z,2.07
2022-12-24T04:59:06.748Z,1.67
2022-12-24T05:01:33.818Z,1.10
2022-12-24T05:04:01.304Z,1.10
2022-12-24T05:06:31.690Z,1.53
2022-12-24T05:08:58.959Z,1.13
2022-12-24T05:11:26.422Z,1.40
2022-12-24T05:13:53.191Z,1.57
2022-12-24T05:16:21.981Z,1.30
2022-12-24T05:18:48.898Z,1.00
2022-12-24T05:21:37.553Z,1.13
2022-12-24T05:24:41.173Z,1.23
2022-12-24T05:27:07.955Z,1.40
2022-12-24T05:29:34.699Z,0.70
2022-12-24T05:32:01.611Z,1.10
2022-12-24T05:34:28.346Z,0.70
2022-12-24T05:36:55.124Z,0.63
2022-12-24T05:39:21.901Z,1.30
2022-12-24T05:41:48.684Z,1.30
2022-12-24T05:44:16.555Z,1.33
2022-12-24T05:46:43.888Z,1.10
2022-12-24T05:49:10.740Z,0.93
2022-12-24T05:54:21.962Z,1.10
2022-12-24T05:56:48.852Z,1.70
2022-12-24T05:59:15.645Z,1.00
2022-12-24T06:01:47.228Z,1.63
2022-12-24T06:04:14.514Z,1.57
2022-12-24T06:06:41.310Z,1.03
2022-12-24T06:09:08.110Z,2.33
2022-12-24T06:11:35.582Z,2.13
2022-12-24T06:14:02.528Z,1.83
2022-12-24T06:16:29.816Z,1.40
2022-12-24T06:18:56.603Z,0.90
2022-12-24T06:21:23.487Z,1.27
2022-12-24T06:23:50.283Z,1.90
2022-12-24T06:26:20.723Z,1.67
2022-12-24T06:28:49.314Z,1.50
2022-12-24T06:31:18.460Z,1.50
2022-12-24T06:33:45.529Z,0.80
2022-12-24T06:36:17.699Z,1.57
2022-12-24T06:38:46.057Z,1.40
2022-12-24T06:41:12.953Z,1.30
2022-12-24T06:43:43.114Z,1.53
2022-12-24T06:46:09.928Z,1.87
2022-12-24T06:48:36.688Z,1.83
2022-12-24T06:51:03.999Z,2.40
2022-12-24T06:53:31.711Z,2.47
2022-12-24T06:56:10.111Z,1.90
2022-12-24T06:58:37.691Z,2.10
2022-12-24T07:01:06.802Z,2.00
2022-12-24T07:03:33.866Z,1.83
2022-12-24T07:06:00.616Z,2.03
2022-12-24T07:08:27.482Z,2.10
2022-12-24T07:10:54.799Z,1.63
2022-12-24T07:13:21.801Z,2.50
2022-12-24T07:15:57.476Z,2.20
2022-12-24T07:18:43.007Z,1.77
2022-12-24T07:21:09.809Z,1.40
2022-12-24T07:23:36.955Z,2.07
2022-12-24T07:26:07.486Z,1.50
2022-12-24T07:28:34.400Z,2.20
2022-12-24T07:31:01.346Z,2.57
2022-12-24T07:33:28.525Z,1.80
2022-12-24T07:36:03.180Z,1.50
2022-12-24T07:38:31.062Z,1.77
2022-12-24T07:40:58.225Z,2.55
2022-12-24T07:43:26.285Z,2.42
2022-12-24T07:45:57.824Z,1.63
2022-12-24T07:48:26.468Z,2.23
2022-12-24T07:50:53.664Z,1.80
2022-12-24T07:53:20.667Z,1.47
2022-12-24T07:55:47.411Z,1.57
2022-12-24T07:58:14.199Z,1.07
2022-12-24T08:00:41.038Z,0.82
2022-12-24T08:03:08.004Z,0.80
2022-12-24T08:05:36.470Z,0.80
2022-12-24T08:08:03.845Z,1.17
2022-12-24T08:10:30.591Z,0.85
2022-12-24T08:12:57.355Z,0.60
2022-12-24T08:15:24.389Z,0.77
2022-12-24T08:17:51.239Z,0.77
2022-12-24T08:20:18.090Z,0.65
2022-12-24T08:22:44.882Z,0.85
2022-12-24T08:25:11.648Z,1.38
2022-12-24T08:27:38.881Z,1.30
2022-12-24T08:30:06.572Z,1.00
2022-12-24T08:32:33.736Z,1.23
2022-12-24T08:35:00.489Z,1.47
2022-12-24T08:37:27.341Z,1.10
2022-12-24T08:39:54.083Z,1.10
2022-12-24T08:42:20.892Z,1.00
2022-12-24T08:44:47.631Z,1.13
2022-12-24T08:47:14.505Z,0.63
2022-12-24T08:49:41.332Z,0.60
2022-12-24T08:52:08.219Z,0.63
2022-12-24T08:54:34.987Z,0.70
2022-12-24T08:57:02.373Z,0.50
2022-12-24T08:59:29.124Z,0.50
2022-12-24T09:01:55.977Z,1.00
2022-12-24T09:04:22.832Z,0.63
2022-12-24T09:06:49.609Z,1.20
2022-12-24T09:09:16.360Z,0.60
2022-12-24T09:11:43.127Z,0.87
2022-12-24T09:14:09.876Z,0.83
2022-12-24T09:16:36.758Z,0.80
2022-12-24T09:19:03.769Z,0.87
2022-12-24T09:21:31.467Z,0.70
2022-12-24T09:24:00.432Z,0.57
2022-12-24T09:26:30.007Z,0.90
2022-12-24T09:28:57.643Z,0.70
2022-12-24T09:31:24.895Z,1.30
2022-12-24T09:33:52.336Z,0.73
2022-12-24T09:36:19.950Z,0.83
2022-12-24T09:38:47.843Z,1.17
2022-12-24T09:41:34.880Z,1.03
2022-12-24T09:44:29.244Z,0.80
2022-12-24T09:46:59.053Z,0.90
2022-12-24T09:49:37.672Z,1.10
2022-12-24T09:52:12.520Z,0.60
2022-12-24T09:54:49.613Z,0.80
2022-12-24T09:57:36.156Z,0.60
2022-12-24T10:00:03.965Z,0.80
2022-12-24T10:02:36.877Z,1.27
2022-12-24T10:05:03.973Z,0.60
2022-12-24T10:07:33.584Z,0.68
2022-12-24T10:10:23.088Z,0.93
2022-12-24T10:13:10.290Z,0.80
2022-12-24T10:15:44.374Z,0.93
2022-12-24T10:18:36.059Z,0.83
2022-12-24T10:21:20.543Z,0.70
2022-12-24T10:23:55.197Z,0.53
2022-12-24T10:26:40.072Z,0.50
2022-12-24T10:29:17.423Z,0.77
2022-12-24T10:31:53.968Z,0.60
2022-12-24T10:34:28.627Z,0.90
2022-12-24T10:36:56.365Z,0.80
2022-12-24T10:39:25.929Z,0.70
2022-12-24T10:41:57.801Z,0.53
2022-12-24T10:44:27.884Z,0.80
2022-12-24T10:46:54.875Z,1.25
2022-12-24T10:49:38.065Z,0.60
2022-12-24T10:52:35.146Z,0.60
2022-12-24T10:55:17.081Z,0.80
2022-12-24T10:57:45.139Z,1.10
2022-12-24T11:00:26.061Z,1.00
2022-12-24T11:03:21.815Z,0.80
2022-12-24T11:06:10.490Z,1.27
2022-12-24T11:08:40.342Z,1.00
2022-12-24T11:11:12.712Z,2.28
2022-12-24T11:13:59.738Z,1.30
2022-12-24T11:16:32.385Z,1.10
2022-12-24T11:19:02.634Z,1.90
2022-12-24T11:21:32.641Z,1.80
2022-12-24T11:24:26.296Z,1.60
2022-12-24T11:26:53.205Z,1.80
2022-12-24T11:29:25.748Z,1.65
2022-12-24T11:32:09.981Z,1.47
2022-12-24T11:34:36.762Z,1.80
2022-12-24T11:37:16.798Z,1.80
2022-12-24T11:39:48.845Z,1.40
2022-12-24T11:42:37.154Z,1.63
2022-12-24T11:45:38.553Z,1.90
2022-12-24T11:48:26.507Z,1.57
2022-12-24T11:51:05.007Z,1.90
2022-12-24T11:53:41.937Z,1.80
2022-12-24T11:56:17.520Z,2.20
2022-12-24T11:58:54.918Z,1.60
2022-12-24T12:01:24.821Z,1.80
2022-12-24T12:04:15.577Z,2.03
2022-12-24T12:06:47.799Z,2.30
2022-12-24T12:09:21.897Z,2.20
2022-12-24T12:12:12.841Z,2.73
2022-12-24T12:14:54.821Z,3.33
2022-12-24T12:17:33.897Z,1.63
2022-12-24T12:20:07.694Z,2.80
2022-12-24T12:22:46.944Z,1.90
2022-12-24T12:25:37.452Z,2.00
2022-12-24T12:28:14.009Z,2.78
2022-12-24T12:31:10.399Z,2.43
2022-12-24T12:33:47.012Z,1.93
2022-12-24T12:36:48.488Z,2.58
2022-12-24T12:39:15.684Z,1.67
2022-12-24T12:42:21.159Z,2.10
2022-12-24T12:44:51.987Z,2.00
2022-12-24T12:47:39.789Z,2.33
2022-12-24T12:50:40.771Z,2.07
2022-12-24T12:53:55.939Z,2.65
2022-12-24T12:56:33.898Z,2.10
2022-12-24T12:59:19.253Z,1.67
2022-12-24T13:02:01.394Z,2.37
2022-12-24T13:04:55.656Z,2.07
2022-12-24T13:07:57.999Z,2.13
2022-12-24T13:10:50.983Z,2.30
2022-12-24T13:13:36.229Z,2.07
2022-12-24T13:16:18.178Z,1.60
2022-12-24T13:18:53.377Z,2.80
2022-12-24T13:21:26.446Z,3.92
2022-12-24T13:24:16.900Z,2.17
2022-12-24T13:27:07.738Z,2.97
2022-12-24T13:29:36.927Z,2.03
2022-12-24T13:32:21.969Z,2.70
2022-12-24T13:34:57.906Z,3.00
2022-12-24T13:37:43.279Z,2.20
2022-12-24T13:40:09.987Z,2.10
2022-12-24T13:42:50.460Z,2.30
2022-12-24T13:45:29.807Z,2.33
2022-12-24T13:48:02.629Z,1.63
2022-12-24T13:50:35.058Z,2.10
2022-12-24T13:53:02.361Z,2.30
2022-12-24T13:55:30.209Z,3.10
2022-12-24T13:58:03.017Z,3.00
2022-12-24T14:00:37.105Z,2.00
2022-12-24T14:03:09.639Z,2.87
2022-12-24T14:05:45.029Z,2.97
2022-12-24T14:08:28.884Z,3.00
2022-12-24T14:11:15.873Z,3.07
2022-12-24T14:14:04.418Z,2.55
2022-12-24T14:16:41.565Z,2.13
2022-12-24T14:19:16.612Z,3.00
2022-12-24T14:22:14.521Z,2.38
2022-12-24T14:24:51.059Z,3.23
2022-12-24T14:27:24.759Z,2.10
2022-12-24T14:30:16.092Z,2.25
2022-12-24T14:32:42.838Z,2.92
2022-12-24T14:35:20.133Z,2.90
2022-12-24T14:38:12.240Z,2.53
2022-12-24T14:40:48.361Z,3.00
2022-12-24T14:43:39.765Z,2.33
2022-12-24T14:46:15.902Z,2.73
2022-12-24T14:49:15.140Z,3.00
2022-12-24T14:51:51.037Z,4.13
2022-12-24T14:54:26.838Z,3.65
2022-12-24T14:57:26.798Z,4.27
2022-12-24T14:59:56.438Z,2.88
2022-12-24T15:02:40.433Z,3.78
2022-12-24T15:05:11.329Z,2.97
2022-12-24T15:08:01.051Z,2.70
2022-12-24T15:10:34.570Z,2.20
2022-12-24T15:13:19.216Z,2.90
2022-12-24T15:15:52.201Z,2.08
2022-12-24T15:18:22.992Z,2.07
2022-12-24T15:20:55.141Z,3.53
2022-12-24T15:23:37.199Z,3.77
2022-12-24T15:26:25.046Z,3.27
2022-12-24T15:29:00.151Z,3.30
2022-12-24T15:31:30.423Z,2.95
2022-12-24T15:33:59.443Z,3.23
2022-12-24T15:36:31.400Z,3.90
2022-12-24T15:39:01.040Z,2.83
2022-12-24T15:42:01.263Z,3.77
2022-12-24T15:44:33.275Z,3.87
2022-12-24T15:47:01.710Z,3.40
2022-12-24T15:49:31.527Z,2.30
2022-12-24T15:52:12.638Z,2.90
2022-12-24T15:54:45.346Z,1.67
2022-12-24T15:57:23.175Z,3.63
2022-12-24T15:59:55.430Z,3.67
2022-12-24T16:02:25.483Z,3.80
2022-12-24T16:04:52.606Z,3.35
2022-12-24T16:07:26.832Z,3.13
2022-12-24T16:10:13.629Z,2.97
2022-12-24T16:12:40.639Z,5.03
2022-12-24T16:15:14.652Z,3.20
2022-12-24T16:17:41.500Z,3.47
2022-12-24T16:20:19.935Z,3.35
2022-12-24T16:22:48.063Z,4.18
2022-12-24T16:25:28.232Z,4.15
2022-12-24T16:28:21.762Z,5.88
2022-12-24T16:33:34.002Z,4.25
2022-12-24T16:36:00.865Z,4.70
2022-12-24T16:38:47.620Z,5.50
2022-12-24T16:41:14.488Z,4.97
2022-12-24T16:43:50.222Z,4.88
2022-12-24T16:46:36.265Z,5.00
2022-12-24T16:49:23.441Z,6.18
2022-12-24T16:51:50.276Z,5.28
2022-12-24T16:54:17.042Z,5.47
2022-12-24T16:56:44.848Z,5.15
2022-12-24T16:59:23.831Z,6.37
2022-12-24T17:01:51.093Z,4.32
2022-12-24T17:04:18.870Z,4.65
2022-12-24T17:09:32.870Z,5.55
2022-12-24T17:11:59.729Z,5.40
2022-12-24T17:14:26.554Z,4.93
2022-12-24T17:16:53.520Z,6.05
2022-12-24T17:19:20.342Z,5.57
2022-12-24T17:21:48.010Z,4.22
2022-12-24T17:24:14.847Z,4.82
2022-12-24T17:26:43.549Z,4.28
2022-12-24T17:29:10.579Z,5.45
2022-12-24T17:31:39.293Z,6.68
2022-12-24T17:34:06.747Z,5.80
2022-12-24T17:36:33.516Z,4.72
2022-12-24T17:39:00.433Z,3.70
2022-12-24T17:41:27.246Z,4.45
2022-12-24T17:43:54.111Z,4.80
2022-12-24T17:46:23.759Z,5.28
2022-12-24T17:48:51.603Z,5.22
2022-12-24T17:51:22.758Z,5.82
2022-12-24T17:53:50.050Z,4.28
2022-12-24T17:56:17.780Z,5.68
2022-12-24T17:58:45.980Z,5.32
2022-12-24T18:01:15.720Z,6.10
2022-12-24T18:06:27.846Z,5.28
2022-12-24T18:08:55.355Z,4.38
2022-12-24T18:11:40.367Z,4.40
2022-12-24T18:14:08.245Z,4.80
2022-12-24T18:16:39.550Z,5.45
2022-12-24T18:19:08.408Z,3.83
2022-12-24T18:21:35.435Z,5.22
2022-12-24T18:24:03.119Z,5.97
2022-12-24T18:26:30.669Z,4.70
2022-12-24T18:28:58.863Z,4.38
2022-12-24T18:31:26.928Z,4.70
2022-12-24T18:33:56.031Z,5.38
2022-12-24T18:36:23.413Z,4.07
2022-12-24T18:38:50.959Z,5.72
2022-12-24T18:41:21.304Z,4.88
2022-12-24T18:43:48.521Z,5.68
2022-12-24T18:46:18.800Z,5.00
2022-12-24T18:48:46.931Z,6.03
2022-12-24T18:51:14.311Z,4.90
2022-12-24T18:53:41.222Z,4.93
2022-12-24T18:56:13.900Z,4.90
2022-12-24T18:58:42.359Z,4.05
2022-12-24T19:01:18.852Z,4.93
2022-12-24T19:03:46.216Z,5.13
2022-12-24T19:06:12.973Z,4.40
2022-12-24T19:08:57.585Z,3.38
2022-12-24T19:11:27.158Z,5.15
2022-12-24T19:13:54.048Z,4.82
2022-12-24T19:16:21.631Z,4.53
2022-12-24T19:18:48.909Z,4.95
2022-12-24T19:21:17.679Z,4.57
2022-12-24T19:23:45.980Z,4.20
2022-12-24T19:26:14.206Z,5.00
2022-12-24T19:28:41.503Z,4.75
2022-12-24T19:31:21.054Z,3.67
2022-12-24T19:33:50.767Z,5.18
2022-12-24T19:36:23.143Z,3.22
2022-12-24T19:38:50.163Z,6.90
2022-12-24T19:41:25.770Z,4.85
2022-12-24T19:43:55.364Z,4.93
2022-12-24T19:46:25.434Z,4.35
2022-12-24T19:48:54.691Z,4.22
2022-12-24T19:51:22.398Z,4.80
2022-12-24T19:53:49.817Z,5.10
2022-12-24T19:56:18.215Z,3.72
2022-12-24T19:58:45.497Z,5.18
2022-12-24T20:01:16.324Z,5.35
2022-12-24T20:03:44.627Z,4.95
2022-12-24T20:06:12.903Z,5.38
2022-12-24T20:08:40.587Z,5.30
2022-12-24T20:11:09.757Z,5.00
2022-12-24T20:13:38.685Z,5.55
2022-12-24T20:16:07.961Z,5.13
2022-12-24T20:18:35.081Z,5.03
2022-12-24T20:21:03.643Z,4.55
2022-12-24T20:23:30.793Z,3.95
2022-12-24T20:26:03.326Z,4.95
2022-12-24T20:28:35.119Z,3.47
2022-12-24T20:31:02.096Z,4.45
2022-12-24T20:33:28.996Z,4.25
2022-12-24T20:36:01.947Z,5.03
2022-12-24T20:41:15.573Z,5.82
2022-12-24T20:43:47.864Z,5.13
2022-12-24T20:46:16.555Z,5.20
2022-12-24T20:48:43.464Z,5.28
2022-12-24T20:51:20.948Z,4.38
2022-12-24T20:53:50.092Z,5.47
2022-12-24T20:56:36.119Z,6.20
2022-12-24T20:59:03.116Z,4.32
2022-12-24T21:01:30.614Z,6.45
2022-12-24T21:04:00.470Z,5.03
2022-12-24T21:06:27.415Z,4.70
2022-12-24T21:08:54.721Z,5.55
2022-12-24T21:11:41.385Z,4.68
2022-12-24T21:14:27.789Z,3.53
2022-12-24T21:16:55.506Z,4.07
2022-12-24T21:19:24.452Z,3.10
2022-12-24T21:21:51.683Z,2.85
2022-12-24T21:24:18.566Z,3.88
2022-12-24T21:27:03.887Z,4.05
2022-12-24T21:29:31.282Z,5.63
2022-12-24T21:31:58.109Z,3.97
2022-12-24T21:34:24.924Z,3.92
2022-12-24T21:36:51.650Z,3.88
2022-12-24T21:39:18.605Z,4.30
2022-12-24T21:41:45.435Z,5.38
2022-12-24T21:44:12.217Z,5.43
2022-12-24T21:46:38.973Z,5.75
2022-12-24T21:49:25.058Z,6.07
2022-12-24T21:51:51.938Z,4.22
2022-12-24T21:54:27.449Z,5.03
2022-12-24T21:57:30.013Z,4.70
2022-12-24T22:00:18.427Z,4.78
2022-12-24T22:02:45.783Z,3.55
2022-12-24T22:05:13.845Z,3.13
2022-12-24T22:07:59.428Z,3.22
2022-12-24T22:10:45.249Z,2.63
2022-12-24T22:13:12.063Z,3.80
2022-12-24T22:16:08.763Z,2.47
2022-12-24T22:18:35.583Z,3.15
2022-12-24T22:21:02.825Z,4.10
2022-12-24T22:23:29.678Z,4.68
2022-12-24T22:25:57.833Z,4.50
2022-12-24T22:28:24.636Z,3.42
2022-12-24T22:30:51.476Z,3.38
2022-12-24T22:33:18.324Z,4.10
2022-12-24T22:35:45.056Z,4.63
2022-12-24T22:38:11.868Z,3.97
2022-12-24T22:40:41.712Z,2.92
2022-12-24T22:43:08.527Z,2.58
2022-12-24T22:45:35.303Z,2.22
2022-12-24T22:48:02.130Z,2.80
2022-12-24T22:50:28.892Z,2.08
2022-12-24T22:52:55.724Z,3.17
2022-12-24T22:55:22.730Z,2.47
2022-12-24T22:57:49.560Z,2.20
2022-12-24T23:00:39.773Z,4.15
2022-12-24T23:03:06.958Z,3.92
2022-12-24T23:05:52.346Z,1.58
2022-12-24T23:08:19.168Z,1.50
2022-12-24T23:10:45.983Z,1.10
2022-12-24T23:13:32.319Z,1.33
2022-12-24T23:16:03.644Z,1.38
2022-12-24T23:18:49.212Z,0.55
2022-12-24T23:21:34.635Z,0.80
2022-12-24T23:24:20.676Z,0.70
2022-12-24T23:27:25.062Z,0.98
2022-12-24T23:29:51.884Z,0.77
2022-12-24T23:32:18.615Z,0.70
2022-12-24T23:34:45.466Z,0.65
2022-12-24T23:37:12.212Z,0.82
2022-12-24T23:39:39.003Z,0.90
2022-12-24T23:42:05.818Z,0.85
2022-12-24T23:44:33.032Z,0.50
2022-12-24T23:47:00.095Z,0.40
2022-12-24T23:49:45.606Z,0.55
2022-12-24T23:52:12.570Z,0.60
2022-12-24T23:55:17.039Z,0.85
2022-12-24T23:57:43.828Z,0.50
